createdAt,value
2022-10-11T14:05:25.328Z,5.30
2022-10-11T14:07:55.802Z,4.90
2022-10-11T14:10:27.010Z,4.60
2022-10-11T14:13:24.136Z,6.90
2022-10-11T14:16:29.733Z,6.60
2022-10-11T14:19:11.879Z,6.10
2022-10-11T15:33:07.209Z,4.10
2022-10-11T15:35:37.456Z,3.00
2022-10-11T15:38:07.822Z,5.70
2022-10-11T15:40:38.713Z,6.10
2022-10-11T15:43:08.972Z,3.70
2022-10-11T15:45:39.393Z,6.80
2022-10-11T15:48:12.521Z,6.10
2022-10-11T15:50:43.535Z,5.80
2022-10-11T15:53:16.306Z,8.30
2022-10-11T15:55:49.565Z,4.60
2022-10-11T15:58:21.783Z,5.20
2022-10-11T16:00:54.754Z,8.90
2022-10-11T16:03:27.953Z,3.60
2022-10-11T16:06:04.623Z,4.40
2022-10-11T16:08:36.255Z,8.70
2022-10-11T16:11:08.761Z,1.90
2022-10-11T16:13:39.296Z,13.60
2022-10-11T16:16:10.807Z,9.70
2022-10-11T16:18:44.052Z,12.60
2022-10-11T16:21:16.152Z,4.80
2022-10-11T16:23:46.367Z,5.80
2022-10-11T16:26:17.614Z,6.60
2022-10-11T16:28:48.530Z,9.80
2022-10-11T16:31:21.008Z,6.70
2022-10-11T16:33:52.860Z,4.30
2022-10-11T16:36:35.861Z,13.80
2022-10-11T16:39:09.772Z,7.10
2022-10-11T16:41:40.650Z,6.30
2022-10-11T16:44:14.871Z,6.50
2022-10-11T16:46:48.037Z,7.50
2022-10-11T16:49:19.088Z,5.00
2022-10-11T16:51:49.325Z,6.80
2022-10-11T16:54:20.805Z,5.90
2022-10-11T16:56:51.747Z,8.70
2022-10-11T16:59:22.165Z,7.80
2022-10-11T17:01:52.449Z,4.00
2022-10-11T17:04:25.133Z,5.20
2022-10-11T17:06:56.433Z,6.10
2022-10-11T17:09:27.301Z,3.50
2022-10-11T17:12:00.221Z,5.90
2022-10-11T17:14:30.506Z,5.80
2022-10-11T17:17:00.714Z,7.20
2022-10-11T17:19:31.301Z,3.80
2022-10-11T17:22:01.544Z,6.60
2022-10-11T17:24:31.810Z,3.70
2022-10-11T17:27:02.021Z,4.20
2022-10-11T17:29:32.731Z,4.50
2022-10-11T17:32:03.308Z,5.10
2022-10-11T17:34:33.988Z,5.20
2022-10-11T17:37:04.286Z,5.90
2022-10-11T17:39:34.571Z,4.90
2022-10-11T17:42:07.475Z,19.00
2022-10-11T17:44:38.632Z,7.90
2022-10-11T17:47:08.901Z,7.50
2022-10-11T17:49:39.190Z,4.80
2022-10-11T17:52:09.552Z,10.30
2022-10-11T17:54:42.948Z,13.20
2022-10-11T17:57:13.247Z,12.90
2022-10-11T17:59:43.520Z,11.30
2022-10-11T18:02:16.923Z,16.10
2022-10-11T18:04:47.489Z,19.50
2022-10-11T18:07:17.740Z,20.40
2022-10-11T18:09:48.034Z,12.90
2022-10-11T18:12:18.293Z,14.80
2022-10-11T18:14:48.591Z,18.90
2022-10-11T18:17:19.039Z,14.00
2022-10-11T18:19:49.332Z,13.90
2022-10-11T18:22:19.635Z,12.10
2022-10-11T18:24:52.916Z,9.20
2022-10-11T18:27:23.194Z,11.50
2022-10-11T18:29:53.447Z,12.50
2022-10-11T18:32:23.700Z,11.70
2022-10-11T18:34:55.812Z,15.90
2022-10-11T18:37:26.061Z,16.30
2022-10-11T18:39:56.519Z,15.40
2022-10-11T18:42:26.829Z,15.70
2022-10-11T18:44:57.928Z,13.20
2022-10-11T18:47:28.169Z,13.60
2022-10-11T18:49:58.421Z,13.70
2022-10-11T18:52:28.697Z,15.80
2022-10-11T18:54:58.984Z,10.50
2022-10-11T18:57:29.264Z,11.00
2022-10-11T19:00:01.363Z,11.80
2022-10-11T19:02:37.861Z,10.50
2022-10-11T19:05:09.273Z,9.80
2022-10-11T19:07:40.446Z,10.30
2022-10-11T19:10:12.030Z,12.20
2022-10-11T19:12:42.632Z,11.50
2022-10-11T19:15:13.445Z,11.20
2022-10-11T19:17:44.007Z,11.30
2022-10-11T19:20:14.791Z,11.10
2022-10-11T19:22:45.193Z,13.20
2022-10-11T19:25:15.695Z,12.00
2022-10-11T19:27:46.053Z,10.20
2022-10-11T19:30:16.556Z,9.70
2022-10-11T19:32:47.007Z,13.20
2022-10-11T19:35:20.170Z,8.30
2022-10-11T19:37:51.879Z,10.40
2022-10-11T19:40:22.729Z,14.30
2022-10-11T19:42:53.155Z,11.00
2022-10-11T19:45:24.065Z,9.00
2022-10-11T19:47:54.339Z,10.40
2022-10-11T19:50:24.569Z,13.60
2022-10-11T19:52:54.801Z,12.40
2022-10-11T19:55:25.144Z,9.80
2022-10-11T19:57:55.462Z,12.30
2022-10-11T20:00:25.764Z,12.70
2022-10-11T20:03:01.231Z,12.40
2022-10-11T20:05:31.593Z,13.70
2022-10-11T20:08:01.801Z,10.80
2022-10-11T20:10:32.116Z,12.30
2022-10-11T20:13:02.327Z,11.70
2022-10-11T20:15:37.682Z,10.10
2022-10-11T20:18:08.310Z,9.40
2022-10-11T20:20:38.534Z,18.20
2022-10-11T20:23:09.341Z,17.60
2022-10-11T20:25:39.783Z,15.20
2022-10-11T20:28:10.101Z,13.80
2022-10-11T20:30:44.730Z,16.20
2022-10-11T20:33:15.037Z,14.40
2022-10-11T20:35:45.282Z,16.10
2022-10-11T20:38:15.523Z,17.30
2022-10-11T20:40:45.717Z,11.10
2022-10-11T20:43:15.938Z,12.10
2022-10-11T20:45:47.299Z,12.00
2022-10-11T20:48:17.551Z,11.80
2022-10-11T20:50:47.893Z,11.10
2022-10-11T20:53:18.127Z,11.30
2022-10-11T20:55:49.697Z,13.80
2022-10-11T20:58:21.221Z,10.60
2022-10-11T21:00:51.570Z,13.40
2022-10-11T21:03:22.141Z,10.40
2022-10-11T21:06:00.568Z,11.80
2022-10-11T21:08:31.087Z,15.30
2022-10-11T21:11:01.485Z,12.80
2022-10-11T21:13:31.755Z,13.00
2022-10-11T21:16:08.049Z,14.10
2022-10-11T21:18:38.656Z,15.70
2022-10-11T21:21:10.943Z,13.30
2022-10-11T21:23:41.658Z,11.50
2022-10-11T21:26:14.536Z,12.50
2022-10-11T21:28:45.512Z,11.00
2022-10-11T21:31:17.086Z,13.70
2022-10-11T21:33:47.337Z,16.50
2022-10-11T21:36:19.469Z,10.50
2022-10-11T21:38:50.439Z,12.20
2022-10-11T21:41:22.582Z,11.70
2022-10-11T21:43:53.211Z,12.60
2022-10-11T21:46:41.664Z,13.10
2022-10-11T21:49:15.651Z,16.90
2022-10-11T21:51:46.142Z,16.30
2022-10-11T21:54:16.452Z,17.70
2022-10-11T21:56:46.740Z,20.90
2022-10-11T21:59:17.577Z,20.40
2022-10-11T22:01:47.838Z,19.20
2022-10-11T22:04:18.119Z,16.40
2022-10-11T22:06:48.329Z,17.10
2022-10-11T22:09:18.625Z,16.40
2022-10-11T22:11:50.199Z,19.60
2022-10-11T22:14:20.441Z,19.10
2022-10-11T22:16:50.663Z,20.10
2022-10-11T22:19:20.950Z,21.10
2022-10-11T22:21:51.351Z,17.50
2022-10-11T22:24:21.635Z,19.40
2022-10-11T22:26:51.939Z,20.40
2022-10-11T22:29:22.208Z,26.20
2022-10-11T22:31:52.564Z,16.40
2022-10-11T22:34:22.929Z,22.60
2022-10-11T22:36:53.115Z,16.80
2022-10-11T22:39:23.374Z,20.70
2022-10-11T22:41:55.956Z,20.10
2022-10-11T22:44:26.174Z,20.60
2022-10-11T22:46:56.397Z,18.90
2022-10-11T22:49:26.959Z,19.30
2022-10-11T22:51:57.229Z,20.70
2022-10-11T22:54:27.450Z,23.00
2022-10-11T22:56:57.917Z,21.20
2022-10-11T22:59:28.256Z,22.90
2022-10-11T23:02:00.559Z,22.00
2022-10-11T23:04:30.799Z,19.80
2022-10-11T23:07:04.965Z,16.40
2022-10-11T23:09:35.600Z,18.90
2022-10-11T23:12:06.268Z,20.00
2022-10-11T23:14:36.524Z,18.20
2022-10-11T23:17:07.020Z,16.60
2022-10-11T23:19:37.819Z,14.90
2022-10-11T23:22:07.989Z,15.50
2022-10-11T23:24:38.230Z,15.60
2022-10-11T23:27:08.860Z,19.90
2022-10-11T23:29:40.899Z,23.70
2022-10-11T23:32:11.666Z,23.30
2022-10-11T23:34:42.181Z,17.50
2022-10-11T23:37:12.441Z,18.80
2022-10-11T23:39:42.656Z,16.00
2022-10-11T23:42:13.123Z,16.50
2022-10-11T23:44:43.554Z,19.40
2022-10-11T23:47:13.787Z,12.90
2022-10-11T23:49:44.257Z,25.60
2022-10-11T23:52:14.581Z,15.20
2022-10-11T23:54:44.795Z,20.30
2022-10-11T23:57:15.051Z,17.30
2022-10-11T23:59:45.327Z,15.90
